Terminal Aerodrome Forecast
Issued by NWS

Home | Current Version | Previous Version | Text Only | Print | Product List | Glossary On
Versions: 1 2 3 4 5 6 7 8 9 10 11 12 13
000
FTUS45 KRIW 032320
TAFPNA
TAF
KPNA 032320Z 0400/0424 32012G18KT P6SM SCT080 BKN150
     FM040100 29007KT P6SM SCT080 BKN150
     FM041100 VRB06KT P6SM BKN050 OVC100
     FM041300 VRB06KT P6SM -SN BKN030 OVC050
      AMD LTD TO CLD VIS AND WIND=

USA.gov is the U.S. government's official web portal to all federal, state and local government web resources and services.